• Join FlightAware (Why Join?)
  • Login
  • US Flag 
08:07AM EDT


 

Airport Tracker/Info


-or-


 

Live Flight TrackerFlight Track Log ✈ SWA3942 ✈ 31-May-2013 ✈ KSTL - KEWR

Flight Track Log - Related Links

Times and Time Zones

All times are in EDT time to prevent confusion due to time zone crossing. See the SWA3942 flight status page for this flight to view local times or setup timezone preferences in your user account.

Time Position Orientation Groundspeed Altitude Reporting Facility
EDT Latitude Longitude Course Direction KTS MPH feet Rate Location/Type
07:44PM 38.7333 -90.2333 90° East 231 266 4,300  Level Gateway (St. Louis) TRACON
07:45PM 38.7303 -90.1550 93° East 241 277 6,100 2,160 Climbing Kansas City Center
07:46PM 38.7408 -90.0481 83° East 292 336 8,700 2,280 Climbing Kansas City Center
07:47PM 38.7528 -89.9272 83° East 330 380 10,800 2,400 Climbing Kansas City Center
07:48PM 38.7661 -89.7900 83° East 374 430 13,700 2,040 Climbing Kansas City Center
07:49PM 38.7817 -89.6250 83° East 395 455 15,000 1,260 Climbing Kansas City Center
07:50PM 38.7950 -89.4828 83° East 400 460 16,400 1,800 Climbing Kansas City Center
07:51PM 38.8142 -89.3372 80° East 415 478 18,800 2,460 Climbing Kansas City Center
07:52PM 38.8358 -89.1614 81° East 461 531 21,500 2,700 Climbing Kansas City Center
07:53PM 38.8564 -88.9992 81° East 462 532 24,300 2,160 Climbing Kansas City Center
07:54PM 38.8794 -88.8453 79° East 467 537 26,000 1,500 Climbing Kansas City Center
07:55PM 38.9014 -88.6681 81° East 497 572 27,400 1,800 Climbing Kansas City Center
07:56PM 38.9231 -88.4931 81° East 506 582 29,800 2,280 Climbing Kansas City Center
07:57PM 38.9683 -88.3225 71° East 500 575 32,100 2,100 Climbing Kansas City Center
07:58PM 39.0206 -88.1242 71° East 496 571 34,200 1,920 Climbing Indianapolis Center
07:59PM 39.0667 -87.9558 71° East 495 570 36,100 1,560 Climbing Indianapolis Center
08:00PM 39.1111 -87.7922 71° East 485 558 37,500 1,200 Climbing Indianapolis Center
08:01PM 39.1589 -87.6200 70° East 484 557 38,600 720 Climbing Indianapolis Center
08:02PM 39.2081 -87.4550 69° East 493 567 39,000 180 Climbing Indianapolis Center
08:04PM 39.2758 -87.2992 61° Northeast 501 577 39,000  Level Indianapolis Center
08:05PM 39.3411 -87.1442 61° Northeast 496 571 39,000  Level Indianapolis Center
08:06PM 39.4064 -86.9864 62° Northeast 498 573 39,000  Level Indianapolis Center
08:07PM 39.4711 -86.8314 62° Northeast 494 568 39,000  Level Indianapolis Center
08:08PM 39.5356 -86.6750 62° Northeast 494 568 39,000  Level Indianapolis Center
08:09PM 39.5981 -86.5203 62° Northeast 487 560 39,000  Level Indianapolis Center
08:10PM 39.6606 -86.3678 62° Northeast 485 558 39,000  Level Indianapolis Center
08:11PM 39.7403 -86.1708 62° Northeast 489 563 39,000  Level Indianapolis Center
08:12PM 39.7944 -86.0383 62° Northeast 484 557 39,000  Level Indianapolis Center
08:13PM 39.8564 -85.8856 62° Northeast 481 554 39,000  Level Indianapolis Center
08:14PM 39.9294 -85.7017 63° Northeast 478 550 39,000  Level Indianapolis Center
08:15PM 39.9900 -85.5483 63° Northeast 479 551 39,000  Level Indianapolis Center
08:16PM 40.0519 -85.3942 62° Northeast 481 554 39,000  Level Indianapolis Center
08:17PM 40.1128 -85.2394 63° Northeast 480 552 39,000  Level Indianapolis Center
08:18PM 40.1736 -85.0836 63° Northeast 483 556 39,000  Level Indianapolis Center
08:19PM 40.2347 -84.9275 63° Northeast 484 557 39,000  Level Indianapolis Center
08:20PM 40.3028 -84.7553 63° Northeast 489 563 39,000  Level Indianapolis Center
08:21PM 40.3631 -84.5967 63° Northeast 481 554 39,000  Level Indianapolis Center
08:22PM 40.4239 -84.4367 63° Northeast 483 556 39,000  Level Indianapolis Center
08:23PM 40.4850 -84.2764 63° Northeast 484 557 39,000  Level Indianapolis Center
08:24PM 40.5447 -84.1167 64° Northeast 482 555 39,000  Level Indianapolis Center
08:25PM 40.6058 -83.9575 63° Northeast 481 554 39,000  Level Indianapolis Center
08:26PM 40.6650 -83.7967 64° Northeast 482 555 39,000  Level Indianapolis Center
08:27PM 40.7253 -83.6372 63° Northeast 482 555 39,000  Level Indianapolis Center
08:28PM 40.7875 -83.4683 64° Northeast 482 555 39,000  Level Indianapolis Center
08:29PM 40.8467 -83.3072 64° Northeast 482 555 39,000  Level Indianapolis Center
08:30PM 40.9011 -83.1544 65° Northeast 474 545 39,000  Level Cleveland Center
08:31PM 40.9336 -83.0044 74° East 468 539 39,000  Level Cleveland Center
08:32PM 40.9703 -82.8381 74° East 463 533 39,000  Level Cleveland Center
08:33PM 41.0028 -82.6742 75° East 463 533 39,000  Level Cleveland Center
08:34PM 41.0369 -82.5100 75° East 463 533 39,000  Level Cleveland Center
08:35PM 41.0708 -82.3431 75° East 463 533 39,000  Level Cleveland Center
08:36PM 41.1044 -82.1786 75° East 463 533 39,000  Level Cleveland Center
08:37PM 41.1425 -81.9894 75° East 471 542 39,000  Level Cleveland Center
08:38PM 41.1756 -81.8244 75° East 471 542 39,000  Level Cleveland Center
08:39PM 41.2086 -81.6594 75° East 471 542 39,000  Level Cleveland Center
08:40PM 41.2433 -81.4944 74° East 466 536 39,000  Level Cleveland Center
08:41PM 41.2675 -81.3428 78° East 461 531 39,000  Level Cleveland Center
08:42PM 41.2997 -81.1800 75° East 461 531 39,000  Level Cleveland Center
08:43PM 41.3317 -81.0144 76° East 456 525 39,000  Level Cleveland Center
08:44PM 41.3572 -80.8486 78° East 456 525 39,000  Level Cleveland Center
08:45PM 41.3681 -80.6633 85° East 451 519 39,000  Level Cleveland Center
08:46PM 41.3806 -80.4972 84° East 451 519 39,000  Level Cleveland Center
08:47PM 41.3928 -80.3286 84° East 451 519 39,000  Level Cleveland Center
08:48PM 41.4006 -80.1653 86° East 445 512 39,000  Level Cleveland Center
08:49PM 41.4103 -80.0017 85° East 445 512 39,000  Level Cleveland Center
08:50PM 41.4200 -79.8550 85° East 440 506 39,000  Level Cleveland Center
08:51PM 41.4269 -79.6942 87° East 440 506 39,000  Level Cleveland Center
08:52PM 41.4361 -79.5333 86° East 440 506 39,000  Level Cleveland Center
08:53PM 41.4450 -79.3697 86° East 440 506 39,000  Level Cleveland Center
08:54PM 41.4556 -79.2089 85° East 440 506 39,000  Level Cleveland Center
08:55PM 41.4639 -79.0453 86° East 440 506 39,000  Level Cleveland Center
08:56PM 41.4594 -78.8792 92° East 440 506 39,000  Level Cleveland Center
08:57PM 41.4508 -78.7131 94° East 440 506 39,000  Level Cleveland Center
08:59PM 41.4372 -78.4231 93° East 464 534 39,000 -480 Level New York Center
09:00PM 41.4272 -78.2531 94° East 464 534 37,700 -2,100 Descending New York Center
09:01PM 41.4189 -78.0889 94° East 464 534 34,900 -3,000 Descending New York Center
09:02PM 41.4086 -77.9133 94° East 464 534 31,600 -1,980 Descending New York Center
09:03PM 41.3978 -77.7436 95° East 464 534 31,000 -360 Descending New York Center
09:04PM 41.3850 -77.5706 96° East 464 534 31,000  Level New York Center
09:05PM 41.3561 -77.3825 102° East 469 540 31,000  Level New York Center
09:06PM 41.3278 -77.2139 103° East 469 540 31,000  Level New York Center
09:07PM 41.3017 -77.0428 101° East 469 540 31,000  Level New York Center
09:08PM 41.2731 -76.8719 103° East 474 545 31,000 -540 Level New York Center
09:09PM 41.2464 -76.6983 101° East 479 551 30,000 -2,280 Descending New York Center
09:10PM 41.2192 -76.5303 102° East 479 551 26,500 -3,300 Descending New York Center
09:11PM 41.1931 -76.3792 103° East 474 545 23,500 -2,940 Descending New York Center
09:12PM 41.1653 -76.2144 103° East 469 540 20,700 -1,980 Descending New York Center
09:13PM 41.1411 -76.0581 102° East 445 512 19,500 -1,200 Descending New York Center
09:14PM 41.1003 -75.8981 109° East 422 486 18,400 -1,560 Descending New York Center
09:15PM 41.0622 -75.7658 111° Southeast 422 486 16,500 -1,920 Descending New York Center
09:16PM 41.0228 -75.6114 109° East 411 473 14,500 -1,560 Descending New York Center
09:17PM 40.9844 -75.4769 111° Southeast 397 457 13,500 -1,200 Descending New York Center
09:18PM 40.9517 -75.3592 110° East 391 450 12,200 -1,500 Descending New York Center
09:19PM 40.9111 -75.2192 111° Southeast 378 435 10,500 -1,320 Descending New York Center
09:20PM 40.8800 -75.1072 110° East 339 390 9,700 -1,200 Descending New York Center
09:21PM 40.8522 -75.0067 110° East 308 354 8,100 -1,380 Descending New York Center
09:22PM 40.8225 -74.9036 111° Southeast 298 343 7,000 -960 Descending New York Center
09:23PM 40.8472 -74.7981 73° East 284 327 6,200 -540 Descending New York Center
09:24PM 40.8817 -74.6986 65° Northeast 279 321 6,000 -840 Descending New York Center
09:25PM 40.9017 -74.5981 75° East 284 327 4,600 -1,440 Descending New York Center
09:26PM 40.9197 -74.4919 77° East 284 327 3,200 -840 Descending New York Center
09:27PM 40.9394 -74.3942 75° East 284 327 3,000 -180 Descending New York Center
09:27PM 40.9500 -74.3500 72° East 247 284 3,000  Level New York TRACON
09:30PM 40.9928 -74.1358 75° East 238 274 3,000  Level New York Center
09:30PM 40.9833 -74.1000 109° East 248 285 3,000  Level New York TRACON
09:31PM 40.9167 -74.0667 159° South 217 250 3,000  Level New York TRACON
09:32PM 40.8667 -74.0500 166° South 177 204 3,000 -120 Level New York TRACON
09:33PM 40.8333 -74.0833 217° Southwest 167 192 2,800 -540 Descending New York TRACON
09:34PM 40.7833 -74.1000 194° South 169 194 2,000 -900 Descending New York TRACON
09:35PM 40.7500 -74.1333 217° Southwest 129 148 1,100 -720 Descending New York TRACON
09:36PM 40.7167 -74.1500 201° Southwest 127 146 500 -600 Descending New York TRACON
09:38PM 40.6925 -74.1687 187° South  Level Estimated
09:45PM 40.6925 -74.1687 187° South  Level Estimated
09:46PM 40.6925 -74.1687 187° South  Level Estimated
09:47PM 40.6925 -74.1687 187° South  Level Estimated
09:48PM 40.6925 -74.1687 187° South  Level Estimated